CDT,Max TemperatureF,Mean TemperatureF,Min TemperatureF,Max Dew PointF,MeanDew PointF,Min DewpointF,Max Humidity, Mean Humidity, Min Humidity, Max Sea Level PressureIn, Mean Sea Level PressureIn, Min Sea Level PressureIn, Max VisibilityMiles, Mean VisibilityMiles, Min VisibilityMiles, Max Wind SpeedMPH, Mean Wind SpeedMPH, Max Gust SpeedMPH,PrecipitationIn, CloudCover, Events, WindDirDegrees
2012-9-1,93,85,77,75,73,72,89,72,52,30.06,29.99,29.91,10,10,8,15,7,18,0.00,3,,198
2012-9-2,95,85,75,73,72,72,89,68,47,30.00,29.93,29.86,10,9,5,14,6,20,0.00,0,,217
2012-9-3,98,88,77,75,72,68,83,64,39,29.96,29.90,29.84,10,10,9,9,5,,0.00,0,,225
2012-9-4,98,86,75,77,72,70,89,66,39,29.92,29.88,29.83,10,10,9,9,3,,0.00,0,Rain,243
2012-9-5,100,88,75,75,71,66,89,63,35,29.89,29.84,29.78,10,10,9,7,2,,0.00,0,,226
2012-9-6,100,86,73,75,72,68,94,69,37,29.91,29.86,29.83,10,10,8,8,1,,0.00,0,,182
2012-9-7,98,86,71,73,71,68,94,66,37,29.90,29.84,29.74,10,9,4,24,2,33,0.15,0,Rain,187
2012-9-8,80,71,60,70,61,54,94,71,39,30.04,29.96,29.84,10,8,0,17,6,22,2.32,3,Rain,1
2012-9-9,84,68,53,64,56,50,100,69,30,30.14,30.07,30.03,10,10,6,7,1,,0.00,0,,332
2012-9-10,87,72,57,64,57,54,94,67,33,30.16,30.09,30.05,10,10,9,6,0,,0.00,0,Rain,153
2012-9-11,86,72,57,63,59,55,94,69,35,30.16,30.11,30.06,10,10,7,12,1,16,0.00,0,,144
2012-9-12,87,74,60,66,61,57,94,71,38,30.17,30.10,30.05,10,10,6,10,2,16,0.00,1,,130
2012-9-13,89,78,66,72,67,63,94,76,46,30.17,30.12,30.06,10,10,7,8,2,,0.00,2,Rain,129
2012-9-14,86,76,66,72,68,64,94,85,58,30.20,30.15,30.10,10,7,1,10,1,,0.29,3,Rain,172
2012-9-15,77,73,69,70,69,68,94,87,74,30.20,30.13,30.07,10,5,1,6,1,,0.06,5,Rain,117
2012-9-16,84,76,68,72,69,66,100,85,58,30.08,30.03,29.97,9,3,1,6,0,,0.17,5,Rain,322
2012-9-17,73,70,66,68,67,64,100,92,83,29.98,29.86,29.78,10,6,2,6,1,,0.95,7,Rain,2
2012-9-18,75,64,53,66,58,46,100,80,38,30.08,29.96,29.83,10,7,0,13,3,18,0.00,4,Fog,351
2012-9-19,78,63,48,57,51,46,100,72,32,30.18,30.12,30.06,10,8,1,6,1,,0.00,0,,224
2012-9-20,82,66,50,64,55,48,94,71,37,30.12,30.06,29.99,10,7,2,8,1,,0.00,0,,200
2012-9-21,86,70,55,64,58,54,94,70,37,30.05,29.99,29.92,10,10,4,9,2,,0.00,0,Rain,191
2012-9-22,89,73,57,66,61,55,100,71,33,30.11,30.05,29.95,10,10,1,6,1,,0.00,0,Rain,329
2012-9-23,78,68,57,63,54,46,94,67,39,30.27,30.18,30.11,10,10,10,12,3,17,0.00,0,,30
2012-9-24,82,68,55,66,56,46,88,65,41,30.23,30.13,30.03,10,10,10,8,2,,0.00,0,,137
2012-9-25,89,78,66,70,66,59,94,73,36,30.06,30.01,29.96,10,8,2,14,4,18,0.00,0,Rain,182
2012-9-26,89,78,68,70,66,63,94,73,43,30.08,30.04,30.00,10,7,2,12,3,17,0.00,0,Rain,173
2012-9-27,89,76,62,68,65,61,94,74,43,30.14,30.08,30.02,10,8,4,8,1,,0.00,0,Rain,178
2012-9-28,89,76,62,70,65,59,94,75,38,30.10,30.04,29.98,10,7,0,8,2,,0.00,0,Fog,183
2012-9-29,73,68,64,68,66,63,94,89,78,30.01,29.97,29.91,8,5,2,9,2,,0.20,3,Rain,31
2012-9-30,64,62,59,63,58,55,94,90,82,29.91,29.79,29.73,9,4,1,14,9,25,1.35,8,Rain,18